sensor_id;sensor_type;location;lat;lon;timestamp;P1;durP1;ratioP1;P2;durP2;ratioP2
12986;SDS011;58897;51.960;5.582;2023-05-21T00:01:34;6.47;;;3.07;;
12986;SDS011;58897;51.960;5.582;2023-05-21T00:04:01;5.53;;;3.30;;
12986;SDS011;58897;51.960;5.582;2023-05-21T00:06:28;6.13;;;3.27;;
12986;SDS011;58897;51.960;5.582;2023-05-21T00:08:55;4.20;;;2.97;;
12986;SDS011;58897;51.960;5.582;2023-05-21T00:11:22;3.53;;;2.83;;
12986;SDS011;58897;51.960;5.582;2023-05-21T00:13:49;4.90;;;3.27;;
12986;SDS011;58897;51.960;5.582;2023-05-21T00:16:15;5.07;;;3.27;;
12986;SDS011;58897;51.960;5.582;2023-05-21T00:18:42;5.13;;;3.47;;
12986;SDS011;58897;51.960;5.582;2023-05-21T00:21:10;3.80;;;2.20;;
12986;SDS011;58897;51.960;5.582;2023-05-21T00:23:37;5.07;;;3.20;;
12986;SDS011;58897;51.960;5.582;2023-05-21T00:26:04;4.83;;;3.50;;
12986;SDS011;58897;51.960;5.582;2023-05-21T00:28:31;6.07;;;3.47;;
12986;SDS011;58897;51.960;5.582;2023-05-21T00:30:58;4.23;;;3.60;;
12986;SDS011;58897;51.960;5.582;2023-05-21T00:33:24;3.63;;;2.93;;
12986;SDS011;58897;51.960;5.582;2023-05-21T00:35:54;4.90;;;3.30;;
12986;SDS011;58897;51.960;5.582;2023-05-21T00:38:22;4.80;;;2.63;;
12986;SDS011;58897;51.960;5.582;2023-05-21T00:40:49;3.07;;;2.60;;
12986;SDS011;58897;51.960;5.582;2023-05-21T00:43:15;5.13;;;3.43;;
12986;SDS011;58897;51.960;5.582;2023-05-21T00:45:42;5.07;;;3.53;;
12986;SDS011;58897;51.960;5.582;2023-05-21T00:48:12;4.70;;;3.17;;
12986;SDS011;58897;51.960;5.582;2023-05-21T00:50:40;5.37;;;3.40;;
12986;SDS011;58897;51.960;5.582;2023-05-21T00:53:07;4.33;;;3.43;;
12986;SDS011;58897;51.960;5.582;2023-05-21T00:55:35;4.60;;;3.27;;
12986;SDS011;58897;51.960;5.582;2023-05-21T00:58:03;4.43;;;3.23;;
12986;SDS011;58897;51.960;5.582;2023-05-21T01:00:33;5.90;;;3.23;;
12986;SDS011;58897;51.960;5.582;2023-05-21T01:03:00;4.27;;;3.40;;
12986;SDS011;58897;51.960;5.582;2023-05-21T01:05:27;4.30;;;2.97;;
12986;SDS011;58897;51.960;5.582;2023-05-21T01:07:54;4.53;;;2.80;;
12986;SDS011;58897;51.960;5.582;2023-05-21T01:10:23;4.60;;;3.63;;
12986;SDS011;58897;51.960;5.582;2023-05-21T01:12:51;5.73;;;3.27;;
12986;SDS011;58897;51.960;5.582;2023-05-21T01:15:20;4.57;;;3.03;;
12986;SDS011;58897;51.960;5.582;2023-05-21T01:17:47;4.50;;;3.40;;
12986;SDS011;58897;51.960;5.582;2023-05-21T01:20:17;4.57;;;3.17;;
12986;SDS011;58897;51.960;5.582;2023-05-21T01:22:48;5.23;;;2.73;;
12986;SDS011;58897;51.960;5.582;2023-05-21T01:25:17;5.93;;;3.23;;
12986;SDS011;58897;51.960;5.582;2023-05-21T01:27:44;5.80;;;3.27;;
12986;SDS011;58897;51.960;5.582;2023-05-21T01:30:10;6.97;;;3.17;;
12986;SDS011;58897;51.960;5.582;2023-05-21T01:32:44;5.47;;;3.77;;
12986;SDS011;58897;51.960;5.582;2023-05-21T01:35:28;3.70;;;3.03;;
12986;SDS011;58897;51.960;5.582;2023-05-21T01:40:54;5.97;;;3.40;;
12986;SDS011;58897;51.960;5.582;2023-05-21T01:43:30;5.67;;;3.73;;
12986;SDS011;58897;51.960;5.582;2023-05-21T01:45:59;3.90;;;2.70;;
12986;SDS011;58897;51.960;5.582;2023-05-21T01:48:27;7.47;;;3.60;;
12986;SDS011;58897;51.960;5.582;2023-05-21T01:50:59;6.27;;;3.87;;
12986;SDS011;58897;51.960;5.582;2023-05-21T01:53:27;4.03;;;3.30;;
12986;SDS011;58897;51.960;5.582;2023-05-21T01:55:54;5.53;;;3.63;;
12986;SDS011;58897;51.960;5.582;2023-05-21T01:58:21;4.53;;;3.30;;
12986;SDS011;58897;51.960;5.582;2023-05-21T02:00:48;6.43;;;3.77;;
12986;SDS011;58897;51.960;5.582;2023-05-21T02:03:16;5.43;;;3.17;;
12986;SDS011;58897;51.960;5.582;2023-05-21T02:05:44;6.63;;;3.73;;
12986;SDS011;58897;51.960;5.582;2023-05-21T02:08:12;5.80;;;4.23;;
12986;SDS011;58897;51.960;5.582;2023-05-21T02:10:40;5.93;;;3.30;;
12986;SDS011;58897;51.960;5.582;2023-05-21T02:13:06;8.87;;;3.93;;
12986;SDS011;58897;51.960;5.582;2023-05-21T02:15:33;5.63;;;3.60;;
12986;SDS011;58897;51.960;5.582;2023-05-21T02:18:00;4.87;;;3.37;;
12986;SDS011;58897;51.960;5.582;2023-05-21T02:20:27;5.97;;;3.40;;
12986;SDS011;58897;51.960;5.582;2023-05-21T02:22:54;5.13;;;3.60;;
12986;SDS011;58897;51.960;5.582;2023-05-21T02:25:20;3.97;;;3.33;;
12986;SDS011;58897;51.960;5.582;2023-05-21T02:27:47;4.97;;;3.53;;
12986;SDS011;58897;51.960;5.582;2023-05-21T02:30:18;5.43;;;3.67;;
12986;SDS011;58897;51.960;5.582;2023-05-21T02:32:45;5.70;;;3.93;;
12986;SDS011;58897;51.960;5.582;2023-05-21T02:35:14;5.50;;;4.20;;
12986;SDS011;58897;51.960;5.582;2023-05-21T02:37:40;5.33;;;3.73;;
12986;SDS011;58897;51.960;5.582;2023-05-21T02:40:09;5.40;;;3.47;;
12986;SDS011;58897;51.960;5.582;2023-05-21T02:42:37;4.50;;;3.50;;
12986;SDS011;58897;51.960;5.582;2023-05-21T02:45:08;6.40;;;4.30;;
12986;SDS011;58897;51.960;5.582;2023-05-21T02:47:36;3.63;;;3.30;;
12986;SDS011;58897;51.960;5.582;2023-05-21T02:50:04;6.97;;;3.63;;
12986;SDS011;58897;51.960;5.582;2023-05-21T02:52:34;4.70;;;3.90;;
12986;SDS011;58897;51.960;5.582;2023-05-21T02:55:00;6.33;;;3.73;;
12986;SDS011;58897;51.960;5.582;2023-05-21T02:57:27;5.10;;;2.87;;
12986;SDS011;58897;51.960;5.582;2023-05-21T02:59:54;5.40;;;3.57;;
12986;SDS011;58897;51.960;5.582;2023-05-21T03:02:22;3.77;;;2.83;;
12986;SDS011;58897;51.960;5.582;2023-05-21T03:04:49;5.20;;;3.90;;
12986;SDS011;58897;51.960;5.582;2023-05-21T03:07:16;5.70;;;4.20;;
12986;SDS011;58897;51.960;5.582;2023-05-21T03:09:44;6.23;;;4.20;;
12986;SDS011;58897;51.960;5.582;2023-05-21T03:12:11;5.17;;;4.00;;
12986;SDS011;58897;51.960;5.582;2023-05-21T03:14:38;5.63;;;4.23;;
12986;SDS011;58897;51.960;5.582;2023-05-21T03:17:04;6.23;;;4.10;;
12986;SDS011;58897;51.960;5.582;2023-05-21T03:19:31;6.03;;;3.73;;
12986;SDS011;58897;51.960;5.582;2023-05-21T03:22:02;4.90;;;3.77;;
12986;SDS011;58897;51.960;5.582;2023-05-21T03:24:30;5.70;;;3.40;;
12986;SDS011;58897;51.960;5.582;2023-05-21T03:26:58;6.10;;;4.00;;
12986;SDS011;58897;51.960;5.582;2023-05-21T03:29:26;5.70;;;4.23;;
12986;SDS011;58897;51.960;5.582;2023-05-21T03:31:54;8.10;;;4.63;;
12986;SDS011;58897;51.960;5.582;2023-05-21T03:34:21;4.93;;;3.93;;
12986;SDS011;58897;51.960;5.582;2023-05-21T03:36:47;7.13;;;4.03;;
12986;SDS011;58897;51.960;5.582;2023-05-21T03:39:14;6.73;;;4.40;;
12986;SDS011;58897;51.960;5.582;2023-05-21T03:41:40;4.47;;;3.70;;
12986;SDS011;58897;51.960;5.582;2023-05-21T03:44:07;4.73;;;4.03;;
12986;SDS011;58897;51.960;5.582;2023-05-21T03:46:34;6.67;;;4.23;;
12986;SDS011;58897;51.960;5.582;2023-05-21T03:49:01;5.30;;;4.17;;
12986;SDS011;58897;51.960;5.582;2023-05-21T03:51:27;5.00;;;4.13;;
12986;SDS011;58897;51.960;5.582;2023-05-21T03:53:56;6.03;;;4.10;;
12986;SDS011;58897;51.960;5.582;2023-05-21T03:56:24;4.13;;;3.57;;
12986;SDS011;58897;51.960;5.582;2023-05-21T03:58:51;5.60;;;4.20;;
12986;SDS011;58897;51.960;5.582;2023-05-21T04:01:18;5.63;;;4.30;;
12986;SDS011;58897;51.960;5.582;2023-05-21T04:03:45;5.70;;;4.23;;
12986;SDS011;58897;51.960;5.582;2023-05-21T04:06:12;5.93;;;4.40;;
12986;SDS011;58897;51.960;5.582;2023-05-21T04:08:38;5.57;;;4.10;;
12986;SDS011;58897;51.960;5.582;2023-05-21T04:11:05;5.70;;;4.37;;
12986;SDS011;58897;51.960;5.582;2023-05-21T04:13:32;5.87;;;4.33;;
12986;SDS011;58897;51.960;5.582;2023-05-21T04:15:58;7.53;;;4.30;;
12986;SDS011;58897;51.960;5.582;2023-05-21T04:18:25;9.17;;;3.67;;
12986;SDS011;58897;51.960;5.582;2023-05-21T04:20:52;5.00;;;4.20;;
12986;SDS011;58897;51.960;5.582;2023-05-21T04:23:19;4.93;;;4.20;;
12986;SDS011;58897;51.960;5.582;2023-05-21T04:25:49;5.43;;;4.47;;
12986;SDS011;58897;51.960;5.582;2023-05-21T04:28:16;5.40;;;4.40;;
12986;SDS011;58897;51.960;5.582;2023-05-21T04:30:46;5.13;;;4.47;;
12986;SDS011;58897;51.960;5.582;2023-05-21T04:33:13;9.47;;;5.00;;
12986;SDS011;58897;51.960;5.582;2023-05-21T04:35:44;5.93;;;4.40;;
12986;SDS011;58897;51.960;5.582;2023-05-21T04:38:12;6.03;;;4.30;;
12986;SDS011;58897;51.960;5.582;2023-05-21T04:40:39;7.50;;;3.60;;
12986;SDS011;58897;51.960;5.582;2023-05-21T04:43:06;7.80;;;4.33;;
12986;SDS011;58897;51.960;5.582;2023-05-21T04:45:33;4.93;;;3.63;;
12986;SDS011;58897;51.960;5.582;2023-05-21T04:48:00;5.80;;;4.10;;
12986;SDS011;58897;51.960;5.582;2023-05-21T04:50:28;6.30;;;4.77;;
12986;SDS011;58897;51.960;5.582;2023-05-21T04:52:56;6.00;;;4.63;;
12986;SDS011;58897;51.960;5.582;2023-05-21T04:55:24;6.07;;;4.47;;
12986;SDS011;58897;51.960;5.582;2023-05-21T04:57:51;5.93;;;4.07;;
12986;SDS011;58897;51.960;5.582;2023-05-21T05:00:18;7.43;;;4.33;;
12986;SDS011;58897;51.960;5.582;2023-05-21T05:02:45;5.07;;;3.90;;
12986;SDS011;58897;51.960;5.582;2023-05-21T05:05:12;5.83;;;4.70;;
12986;SDS011;58897;51.960;5.582;2023-05-21T05:07:38;6.73;;;3.63;;
12986;SDS011;58897;51.960;5.582;2023-05-21T05:10:05;5.03;;;3.83;;
12986;SDS011;58897;51.960;5.582;2023-05-21T05:12:32;4.20;;;3.60;;
12986;SDS011;58897;51.960;5.582;2023-05-21T05:14:58;5.40;;;4.00;;
12986;SDS011;58897;51.960;5.582;2023-05-21T05:17:25;6.90;;;4.33;;
12986;SDS011;58897;51.960;5.582;2023-05-21T05:19:51;6.20;;;4.07;;
12986;SDS011;58897;51.960;5.582;2023-05-21T05:22:18;5.00;;;4.20;;
12986;SDS011;58897;51.960;5.582;2023-05-21T05:24:44;4.77;;;4.07;;
12986;SDS011;58897;51.960;5.582;2023-05-21T05:27:11;6.00;;;4.73;;
12986;SDS011;58897;51.960;5.582;2023-05-21T05:29:37;6.93;;;4.60;;
12986;SDS011;58897;51.960;5.582;2023-05-21T05:32:04;7.50;;;4.43;;
12986;SDS011;58897;51.960;5.582;2023-05-21T05:34:31;7.60;;;4.90;;
12986;SDS011;58897;51.960;5.582;2023-05-21T05:36:58;5.83;;;4.30;;
12986;SDS011;58897;51.960;5.582;2023-05-21T05:39:24;7.43;;;4.53;;
12986;SDS011;58897;51.960;5.582;2023-05-21T05:41:51;5.63;;;3.90;;
12986;SDS011;58897;51.960;5.582;2023-05-21T05:44:17;5.90;;;4.27;;
12986;SDS011;58897;51.960;5.582;2023-05-21T05:46:44;7.37;;;4.30;;
12986;SDS011;58897;51.960;5.582;2023-05-21T05:49:11;5.13;;;3.87;;
12986;SDS011;58897;51.960;5.582;2023-05-21T05:51:38;5.40;;;4.43;;
12986;SDS011;58897;51.960;5.582;2023-05-21T05:54:06;7.43;;;5.00;;
12986;SDS011;58897;51.960;5.582;2023-05-21T05:56:32;7.13;;;4.70;;
12986;SDS011;58897;51.960;5.582;2023-05-21T05:58:59;5.23;;;3.90;;
12986;SDS011;58897;51.960;5.582;2023-05-21T06:01:25;5.10;;;4.23;;
12986;SDS011;58897;51.960;5.582;2023-05-21T06:03:53;5.13;;;4.27;;
12986;SDS011;58897;51.960;5.582;2023-05-21T06:06:19;4.63;;;4.07;;
12986;SDS011;58897;51.960;5.582;2023-05-21T06:08:46;5.13;;;3.80;;
12986;SDS011;58897;51.960;5.582;2023-05-21T06:11:13;5.13;;;4.10;;
12986;SDS011;58897;51.960;5.582;2023-05-21T06:13:42;4.47;;;3.87;;
12986;SDS011;58897;51.960;5.582;2023-05-21T06:16:08;5.37;;;4.43;;
12986;SDS011;58897;51.960;5.582;2023-05-21T06:18:35;5.23;;;4.17;;
12986;SDS011;58897;51.960;5.582;2023-05-21T06:21:02;5.97;;;4.60;;
12986;SDS011;58897;51.960;5.582;2023-05-21T06:23:29;6.03;;;4.50;;
12986;SDS011;58897;51.960;5.582;2023-05-21T06:25:57;5.60;;;4.30;;
12986;SDS011;58897;51.960;5.582;2023-05-21T06:28:24;5.00;;;4.50;;
12986;SDS011;58897;51.960;5.582;2023-05-21T06:30:51;4.50;;;4.10;;
12986;SDS011;58897;51.960;5.582;2023-05-21T06:33:17;6.80;;;4.50;;
12986;SDS011;58897;51.960;5.582;2023-05-21T06:35:44;5.93;;;4.43;;
12986;SDS011;58897;51.960;5.582;2023-05-21T06:38:10;9.20;;;4.80;;
12986;SDS011;58897;51.960;5.582;2023-05-21T06:40:37;4.73;;;4.00;;
12986;SDS011;58897;51.960;5.582;2023-05-21T06:43:04;5.57;;;4.37;;
12986;SDS011;58897;51.960;5.582;2023-05-21T06:45:30;6.40;;;4.63;;
12986;SDS011;58897;51.960;5.582;2023-05-21T06:47:57;5.57;;;4.00;;
12986;SDS011;58897;51.960;5.582;2023-05-21T06:50:23;6.10;;;4.17;;
12986;SDS011;58897;51.960;5.582;2023-05-21T06:52:50;5.73;;;4.33;;
12986;SDS011;58897;51.960;5.582;2023-05-21T06:55:17;6.70;;;4.83;;
12986;SDS011;58897;51.960;5.582;2023-05-21T06:57:43;5.30;;;4.37;;
12986;SDS011;58897;51.960;5.582;2023-05-21T07:00:10;6.57;;;4.80;;
12986;SDS011;58897;51.960;5.582;2023-05-21T07:02:37;7.53;;;4.50;;
12986;SDS011;58897;51.960;5.582;2023-05-21T07:05:04;8.43;;;4.20;;
12986;SDS011;58897;51.960;5.582;2023-05-21T07:07:31;6.37;;;4.40;;
12986;SDS011;58897;51.960;5.582;2023-05-21T07:10:00;7.07;;;4.30;;
12986;SDS011;58897;51.960;5.582;2023-05-21T07:12:26;7.17;;;4.70;;
12986;SDS011;58897;51.960;5.582;2023-05-21T07:14:52;7.97;;;4.83;;
12986;SDS011;58897;51.960;5.582;2023-05-21T07:17:19;7.57;;;4.30;;
12986;SDS011;58897;51.960;5.582;2023-05-21T07:19:46;6.17;;;4.60;;
12986;SDS011;58897;51.960;5.582;2023-05-21T07:22:12;5.97;;;4.57;;
12986;SDS011;58897;51.960;5.582;2023-05-21T07:24:39;7.07;;;4.90;;
12986;SDS011;58897;51.960;5.582;2023-05-21T07:27:06;6.47;;;3.93;;
12986;SDS011;58897;51.960;5.582;2023-05-21T07:29:49;6.90;;;5.17;;
12986;SDS011;58897;51.960;5.582;2023-05-21T07:32:16;6.20;;;4.70;;
12986;SDS011;58897;51.960;5.582;2023-05-21T07:34:42;5.30;;;4.73;;
12986;SDS011;58897;51.960;5.582;2023-05-21T07:37:09;6.07;;;4.73;;
12986;SDS011;58897;51.960;5.582;2023-05-21T07:39:35;5.17;;;4.70;;
12986;SDS011;58897;51.960;5.582;2023-05-21T07:42:03;7.20;;;4.77;;
12986;SDS011;58897;51.960;5.582;2023-05-21T07:44:32;7.20;;;4.57;;
12986;SDS011;58897;51.960;5.582;2023-05-21T07:46:58;5.70;;;4.20;;
12986;SDS011;58897;51.960;5.582;2023-05-21T07:49:25;5.57;;;4.80;;
12986;SDS011;58897;51.960;5.582;2023-05-21T07:51:51;6.73;;;5.23;;
12986;SDS011;58897;51.960;5.582;2023-05-21T07:54:18;6.03;;;4.90;;
12986;SDS011;58897;51.960;5.582;2023-05-21T07:56:44;7.83;;;4.93;;
12986;SDS011;58897;51.960;5.582;2023-05-21T07:59:13;7.50;;;5.33;;
12986;SDS011;58897;51.960;5.582;2023-05-21T08:01:39;16.40;;;12.40;;
12986;SDS011;58897;51.960;5.582;2023-05-21T08:04:07;9.13;;;6.30;;
12986;SDS011;58897;51.960;5.582;2023-05-21T08:06:34;8.23;;;6.27;;
12986;SDS011;58897;51.960;5.582;2023-05-21T08:09:02;7.37;;;5.20;;
12986;SDS011;58897;51.960;5.582;2023-05-21T08:11:31;9.03;;;5.17;;
12986;SDS011;58897;51.960;5.582;2023-05-21T08:13:58;5.33;;;4.43;;
12986;SDS011;58897;51.960;5.582;2023-05-21T08:16:25;5.73;;;4.37;;
12986;SDS011;58897;51.960;5.582;2023-05-21T08:18:52;5.53;;;4.70;;
12986;SDS011;58897;51.960;5.582;2023-05-21T08:21:18;7.60;;;5.17;;
12986;SDS011;58897;51.960;5.582;2023-05-21T08:23:45;8.03;;;4.73;;
12986;SDS011;58897;51.960;5.582;2023-05-21T08:26:12;5.77;;;4.70;;
12986;SDS011;58897;51.960;5.582;2023-05-21T08:28:41;8.60;;;4.93;;
12986;SDS011;58897;51.960;5.582;2023-05-21T08:31:08;6.53;;;5.10;;
12986;SDS011;58897;51.960;5.582;2023-05-21T08:33:35;7.90;;;5.83;;
12986;SDS011;58897;51.960;5.582;2023-05-21T08:36:06;6.27;;;5.10;;
12986;SDS011;58897;51.960;5.582;2023-05-21T08:38:33;7.83;;;5.40;;
12986;SDS011;58897;51.960;5.582;2023-05-21T08:41:00;6.37;;;5.40;;
12986;SDS011;58897;51.960;5.582;2023-05-21T08:43:27;5.27;;;4.77;;
12986;SDS011;58897;51.960;5.582;2023-05-21T08:45:54;8.47;;;4.97;;
12986;SDS011;58897;51.960;5.582;2023-05-21T08:48:24;8.93;;;5.37;;
12986;SDS011;58897;51.960;5.582;2023-05-21T08:50:50;7.67;;;5.07;;
12986;SDS011;58897;51.960;5.582;2023-05-21T08:53:18;6.23;;;4.50;;
12986;SDS011;58897;51.960;5.582;2023-05-21T08:55:54;7.63;;;5.10;;
12986;SDS011;58897;51.960;5.582;2023-05-21T08:58:21;7.17;;;5.17;;
12986;SDS011;58897;51.960;5.582;2023-05-21T09:00:48;8.87;;;4.80;;
12986;SDS011;58897;51.960;5.582;2023-05-21T09:03:15;8.07;;;4.90;;
12986;SDS011;58897;51.960;5.582;2023-05-21T09:05:42;6.73;;;5.27;;
12986;SDS011;58897;51.960;5.582;2023-05-21T09:08:15;5.47;;;4.83;;
12986;SDS011;58897;51.960;5.582;2023-05-21T09:10:47;5.60;;;4.90;;
12986;SDS011;58897;51.960;5.582;2023-05-21T09:13:16;7.00;;;5.20;;
12986;SDS011;58897;51.960;5.582;2023-05-21T09:15:43;10.13;;;6.27;;
12986;SDS011;58897;51.960;5.582;2023-05-21T09:18:11;5.73;;;5.13;;
12986;SDS011;58897;51.960;5.582;2023-05-21T09:20:39;5.43;;;4.60;;
12986;SDS011;58897;51.960;5.582;2023-05-21T09:23:06;5.63;;;4.93;;
12986;SDS011;58897;51.960;5.582;2023-05-21T09:25:37;6.17;;;5.10;;
12986;SDS011;58897;51.960;5.582;2023-05-21T09:28:10;7.50;;;4.70;;
12986;SDS011;58897;51.960;5.582;2023-05-21T09:30:42;5.50;;;4.63;;
12986;SDS011;58897;51.960;5.582;2023-05-21T09:33:11;7.70;;;5.30;;
12986;SDS011;58897;51.960;5.582;2023-05-21T09:35:49;5.47;;;4.60;;
12986;SDS011;58897;51.960;5.582;2023-05-21T09:38:16;8.50;;;5.53;;
12986;SDS011;58897;51.960;5.582;2023-05-21T09:40:43;6.10;;;5.03;;
12986;SDS011;58897;51.960;5.582;2023-05-21T09:43:13;8.80;;;5.17;;
12986;SDS011;58897;51.960;5.582;2023-05-21T09:45:50;12.10;;;5.83;;
12986;SDS011;58897;51.960;5.582;2023-05-21T09:51:13;6.63;;;4.83;;
12986;SDS011;58897;51.960;5.582;2023-05-21T09:53:42;5.20;;;4.73;;
12986;SDS011;58897;51.960;5.582;2023-05-21T09:56:22;7.03;;;5.37;;
12986;SDS011;58897;51.960;5.582;2023-05-21T09:58:54;5.77;;;5.00;;
12986;SDS011;58897;51.960;5.582;2023-05-21T10:01:22;6.97;;;4.90;;
12986;SDS011;58897;51.960;5.582;2023-05-21T10:03:50;6.67;;;5.07;;
12986;SDS011;58897;51.960;5.582;2023-05-21T10:06:22;5.57;;;5.07;;
12986;SDS011;58897;51.960;5.582;2023-05-21T10:08:52;7.87;;;5.17;;
12986;SDS011;58897;51.960;5.582;2023-05-21T10:11:24;10.10;;;5.07;;
12986;SDS011;58897;51.960;5.582;2023-05-21T10:13:54;8.03;;;5.70;;
12986;SDS011;58897;51.960;5.582;2023-05-21T10:16:32;7.27;;;5.10;;
12986;SDS011;58897;51.960;5.582;2023-05-21T10:18:59;5.93;;;5.33;;
12986;SDS011;58897;51.960;5.582;2023-05-21T10:21:27;7.20;;;5.77;;
12986;SDS011;58897;51.960;5.582;2023-05-21T10:23:56;7.40;;;5.73;;
12986;SDS011;58897;51.960;5.582;2023-05-21T10:26:23;9.07;;;6.17;;
12986;SDS011;58897;51.960;5.582;2023-05-21T10:28:51;9.97;;;6.83;;
12986;SDS011;58897;51.960;5.582;2023-05-21T10:31:21;8.67;;;5.87;;
12986;SDS011;58897;51.960;5.582;2023-05-21T10:33:48;8.03;;;7.00;;
12986;SDS011;58897;51.960;5.582;2023-05-21T10:36:16;8.53;;;6.80;;
12986;SDS011;58897;51.960;5.582;2023-05-21T10:38:43;7.20;;;6.10;;
12986;SDS011;58897;51.960;5.582;2023-05-21T10:41:11;8.37;;;6.30;;
12986;SDS011;58897;51.960;5.582;2023-05-21T10:51:24;7.50;;;6.77;;
12986;SDS011;58897;51.960;5.582;2023-05-21T10:56:53;7.40;;;6.57;;
12986;SDS011;58897;51.960;5.582;2023-05-21T11:02:14;7.60;;;6.70;;
12986;SDS011;58897;51.960;5.582;2023-05-21T11:04:45;8.93;;;7.10;;
12986;SDS011;58897;51.960;5.582;2023-05-21T11:07:14;12.00;;;8.80;;
12986;SDS011;58897;51.960;5.582;2023-05-21T11:09:49;8.90;;;7.50;;
12986;SDS011;58897;51.960;5.582;2023-05-21T11:12:16;8.20;;;7.23;;
12986;SDS011;58897;51.960;5.582;2023-05-21T11:14:56;8.17;;;6.90;;
12986;SDS011;58897;51.960;5.582;2023-05-21T11:17:36;8.60;;;6.77;;
12986;SDS011;58897;51.960;5.582;2023-05-21T11:20:11;9.17;;;6.40;;
12986;SDS011;58897;51.960;5.582;2023-05-21T11:22:41;9.10;;;7.27;;
12986;SDS011;58897;51.960;5.582;2023-05-21T11:25:11;7.97;;;6.87;;
12986;SDS011;58897;51.960;5.582;2023-05-21T11:27:39;9.77;;;6.77;;
12986;SDS011;58897;51.960;5.582;2023-05-21T11:30:08;10.07;;;7.00;;
12986;SDS011;58897;51.960;5.582;2023-05-21T11:32:39;8.27;;;7.20;;
12986;SDS011;58897;51.960;5.582;2023-05-21T11:35:26;8.37;;;6.33;;
12986;SDS011;58897;51.960;5.582;2023-05-21T11:37:53;7.57;;;6.70;;
12986;SDS011;58897;51.960;5.582;2023-05-21T11:40:22;7.97;;;6.50;;
12986;SDS011;58897;51.960;5.582;2023-05-21T11:42:55;8.30;;;6.43;;
12986;SDS011;58897;51.960;5.582;2023-05-21T11:45:26;10.53;;;6.93;;
12986;SDS011;58897;51.960;5.582;2023-05-21T11:47:54;7.97;;;6.43;;
12986;SDS011;58897;51.960;5.582;2023-05-21T11:50:21;8.00;;;6.23;;
12986;SDS011;58897;51.960;5.582;2023-05-21T11:52:48;8.90;;;6.17;;
12986;SDS011;58897;51.960;5.582;2023-05-21T11:55:19;9.90;;;6.70;;
12986;SDS011;58897;51.960;5.582;2023-05-21T11:57:47;9.87;;;6.60;;
12986;SDS011;58897;51.960;5.582;2023-05-21T12:00:17;8.73;;;6.67;;
12986;SDS011;58897;51.960;5.582;2023-05-21T12:02:45;12.17;;;8.60;;
12986;SDS011;58897;51.960;5.582;2023-05-21T12:05:13;8.43;;;6.97;;
12986;SDS011;58897;51.960;5.582;2023-05-21T12:07:40;11.23;;;6.83;;
12986;SDS011;58897;51.960;5.582;2023-05-21T12:10:07;10.77;;;6.40;;
12986;SDS011;58897;51.960;5.582;2023-05-21T12:12:34;8.87;;;6.53;;
12986;SDS011;58897;51.960;5.582;2023-05-21T12:15:18;7.93;;;6.43;;
12986;SDS011;58897;51.960;5.582;2023-05-21T12:17:48;9.90;;;7.00;;
12986;SDS011;58897;51.960;5.582;2023-05-21T12:20:16;10.63;;;7.57;;
12986;SDS011;58897;51.960;5.582;2023-05-21T12:22:43;10.97;;;7.30;;
12986;SDS011;58897;51.960;5.582;2023-05-21T12:25:09;7.30;;;6.30;;
12986;SDS011;58897;51.960;5.582;2023-05-21T12:27:37;10.80;;;7.47;;
12986;SDS011;58897;51.960;5.582;2023-05-21T12:30:04;8.67;;;6.90;;
12986;SDS011;58897;51.960;5.582;2023-05-21T12:32:31;8.70;;;7.47;;
12986;SDS011;58897;51.960;5.582;2023-05-21T12:34:58;10.40;;;7.87;;
12986;SDS011;58897;51.960;5.582;2023-05-21T12:37:25;11.80;;;8.10;;
12986;SDS011;58897;51.960;5.582;2023-05-21T12:39:58;8.03;;;7.10;;
12986;SDS011;58897;51.960;5.582;2023-05-21T12:42:32;7.97;;;6.67;;
12986;SDS011;58897;51.960;5.582;2023-05-21T12:45:00;9.30;;;6.90;;
12986;SDS011;58897;51.960;5.582;2023-05-21T12:47:34;11.27;;;8.60;;
12986;SDS011;58897;51.960;5.582;2023-05-21T12:50:02;8.13;;;7.17;;
12986;SDS011;58897;51.960;5.582;2023-05-21T12:52:33;8.77;;;6.40;;
12986;SDS011;58897;51.960;5.582;2023-05-21T12:54:59;7.83;;;6.67;;
12986;SDS011;58897;51.960;5.582;2023-05-21T12:57:27;10.27;;;7.50;;
12986;SDS011;58897;51.960;5.582;2023-05-21T13:00:00;8.90;;;7.43;;
12986;SDS011;58897;51.960;5.582;2023-05-21T13:05:06;11.30;;;6.37;;
12986;SDS011;58897;51.960;5.582;2023-05-21T13:07:34;9.80;;;6.93;;
12986;SDS011;58897;51.960;5.582;2023-05-21T13:10:03;9.63;;;7.47;;
12986;SDS011;58897;51.960;5.582;2023-05-21T13:12:31;9.73;;;7.53;;
12986;SDS011;58897;51.960;5.582;2023-05-21T13:14:59;7.33;;;6.00;;
12986;SDS011;58897;51.960;5.582;2023-05-21T13:17:28;34.27;;;26.50;;
12986;SDS011;58897;51.960;5.582;2023-05-21T13:22:35;11.60;;;7.87;;
12986;SDS011;58897;51.960;5.582;2023-05-21T13:25:09;10.03;;;7.10;;
12986;SDS011;58897;51.960;5.582;2023-05-21T13:27:39;13.30;;;7.30;;
12986;SDS011;58897;51.960;5.582;2023-05-21T13:30:07;7.37;;;6.27;;
12986;SDS011;58897;51.960;5.582;2023-05-21T13:32:35;9.33;;;7.17;;
12986;SDS011;58897;51.960;5.582;2023-05-21T13:35:01;10.57;;;8.10;;
12986;SDS011;58897;51.960;5.582;2023-05-21T13:37:28;9.57;;;6.87;;
12986;SDS011;58897;51.960;5.582;2023-05-21T13:39:55;10.17;;;7.03;;
12986;SDS011;58897;51.960;5.582;2023-05-21T13:42:22;10.07;;;7.33;;
12986;SDS011;58897;51.960;5.582;2023-05-21T13:44:49;9.23;;;6.47;;
12986;SDS011;58897;51.960;5.582;2023-05-21T13:47:15;11.33;;;7.23;;
12986;SDS011;58897;51.960;5.582;2023-05-21T13:49:42;9.87;;;8.00;;
12986;SDS011;58897;51.960;5.582;2023-05-21T13:52:09;8.37;;;7.20;;
12986;SDS011;58897;51.960;5.582;2023-05-21T13:54:35;10.93;;;7.83;;
12986;SDS011;58897;51.960;5.582;2023-05-21T13:57:02;10.47;;;8.30;;
12986;SDS011;58897;51.960;5.582;2023-05-21T13:59:29;9.57;;;7.40;;
12986;SDS011;58897;51.960;5.582;2023-05-21T14:01:59;8.80;;;6.33;;
12986;SDS011;58897;51.960;5.582;2023-05-21T14:04:26;13.23;;;7.90;;
12986;SDS011;58897;51.960;5.582;2023-05-21T14:06:52;9.60;;;7.77;;
12986;SDS011;58897;51.960;5.582;2023-05-21T14:09:19;10.63;;;6.70;;
12986;SDS011;58897;51.960;5.582;2023-05-21T14:11:46;8.53;;;7.40;;
12986;SDS011;58897;51.960;5.582;2023-05-21T14:14:13;14.20;;;7.33;;
12986;SDS011;58897;51.960;5.582;2023-05-21T14:16:44;8.57;;;7.00;;
12986;SDS011;58897;51.960;5.582;2023-05-21T14:19:12;9.03;;;6.60;;
12986;SDS011;58897;51.960;5.582;2023-05-21T14:21:39;10.87;;;7.83;;
12986;SDS011;58897;51.960;5.582;2023-05-21T14:24:06;7.93;;;7.03;;
12986;SDS011;58897;51.960;5.582;2023-05-21T14:26:32;8.00;;;6.93;;
12986;SDS011;58897;51.960;5.582;2023-05-21T14:29:01;11.40;;;9.03;;
12986;SDS011;58897;51.960;5.582;2023-05-21T14:31:28;10.07;;;7.17;;
12986;SDS011;58897;51.960;5.582;2023-05-21T14:33:55;11.40;;;6.67;;
12986;SDS011;58897;51.960;5.582;2023-05-21T14:36:21;9.73;;;8.03;;
12986;SDS011;58897;51.960;5.582;2023-05-21T14:38:48;12.07;;;8.07;;
12986;SDS011;58897;51.960;5.582;2023-05-21T14:41:14;10.13;;;6.87;;
12986;SDS011;58897;51.960;5.582;2023-05-21T14:43:41;10.53;;;7.53;;
12986;SDS011;58897;51.960;5.582;2023-05-21T14:46:07;9.23;;;7.37;;
12986;SDS011;58897;51.960;5.582;2023-05-21T14:48:34;8.93;;;6.83;;
12986;SDS011;58897;51.960;5.582;2023-05-21T14:51:00;12.47;;;8.50;;
12986;SDS011;58897;51.960;5.582;2023-05-21T14:53:27;9.47;;;7.77;;
12986;SDS011;58897;51.960;5.582;2023-05-21T14:55:53;8.17;;;6.70;;
12986;SDS011;58897;51.960;5.582;2023-05-21T14:58:20;9.57;;;7.90;;
12986;SDS011;58897;51.960;5.582;2023-05-21T15:00:47;9.77;;;8.40;;
12986;SDS011;58897;51.960;5.582;2023-05-21T15:03:13;8.00;;;6.43;;
12986;SDS011;58897;51.960;5.582;2023-05-21T15:05:40;12.40;;;8.53;;
12986;SDS011;58897;51.960;5.582;2023-05-21T15:08:06;10.63;;;8.33;;
12986;SDS011;58897;51.960;5.582;2023-05-21T15:10:34;7.63;;;6.83;;
12986;SDS011;58897;51.960;5.582;2023-05-21T15:13:02;10.50;;;7.57;;
12986;SDS011;58897;51.960;5.582;2023-05-21T15:15:29;9.57;;;8.13;;